createdAt,value
2018-11-13T00:00:59.997Z,14.73
2018-11-13T00:03:28.119Z,18.10
2018-11-13T00:05:56.212Z,16.93
2018-11-13T00:08:24.375Z,13.90
2018-11-13T00:10:52.498Z,15.07
2018-11-13T00:13:20.613Z,15.17
2018-11-13T00:15:48.794Z,13.53
2018-11-13T00:18:16.918Z,16.50
2018-11-13T00:20:45.052Z,16.27
2018-11-13T00:23:13.155Z,16.73
2018-11-13T00:25:41.403Z,16.23
2018-11-13T00:28:09.571Z,16.57
2018-11-13T00:30:37.687Z,15.30
2018-11-13T00:33:05.791Z,13.63
2018-11-13T00:35:33.909Z,15.97
2018-11-13T00:38:02.011Z,20.27
2018-11-13T00:40:30.130Z,18.03
2018-11-13T00:42:58.302Z,17.63
2018-11-13T00:45:26.560Z,17.07
2018-11-13T00:47:54.648Z,16.77
2018-11-13T00:50:22.759Z,17.20
2018-11-13T00:52:50.892Z,16.40
2018-11-13T00:55:19.183Z,16.47
2018-11-13T00:57:48.237Z,19.27
2018-11-13T01:00:17.799Z,21.00
2018-11-13T01:02:46.176Z,19.53
2018-11-13T01:05:15.592Z,17.00
2018-11-13T01:07:45.000Z,18.03
2018-11-13T01:10:13.938Z,16.57
2018-11-13T01:12:42.959Z,18.27
2018-11-13T01:15:12.592Z,20.73
2018-11-13T01:17:41.147Z,19.83
2018-11-13T01:20:09.506Z,21.83
2018-11-13T01:22:37.680Z,21.77
2018-11-13T01:25:06.415Z,20.77
2018-11-13T01:27:34.667Z,21.73
2018-11-13T01:30:02.806Z,22.53
2018-11-13T01:32:30.912Z,23.00
2018-11-13T01:34:59.056Z,22.27
2018-11-13T01:37:27.139Z,21.63
2018-11-13T01:39:55.314Z,23.43
2018-11-13T01:42:23.909Z,25.33
2018-11-13T01:44:52.079Z,25.60
2018-11-13T01:47:20.252Z,28.37
2018-11-13T01:49:48.375Z,22.77
2018-11-13T01:52:16.636Z,24.47
2018-11-13T01:54:44.751Z,26.43
2018-11-13T01:57:13.437Z,29.90
2018-11-13T01:59:41.066Z,25.67
2018-11-13T02:02:09.163Z,27.00
2018-11-13T02:04:37.271Z,29.20
2018-11-13T02:07:05.408Z,28.70
2018-11-13T02:09:33.576Z,31.33
2018-11-13T02:12:01.717Z,29.40
2018-11-13T02:14:29.835Z,31.17
2018-11-13T02:16:57.968Z,28.73
2018-11-13T02:19:26.066Z,31.23
2018-11-13T02:21:54.203Z,28.53
2018-11-13T02:24:22.313Z,32.37
2018-11-13T02:26:50.450Z,31.23
2018-11-13T02:29:18.551Z,31.77
2018-11-13T02:31:46.663Z,30.73
2018-11-13T02:34:14.791Z,32.87
2018-11-13T02:36:42.888Z,33.63
2018-11-13T02:39:11.350Z,32.93
2018-11-13T02:41:39.915Z,29.70
2018-11-13T02:44:08.408Z,31.73
2018-11-13T02:46:36.816Z,34.47
2018-11-13T02:49:04.994Z,34.23
2018-11-13T02:51:33.147Z,37.63
2018-11-13T02:54:01.323Z,33.90
2018-11-13T02:56:29.480Z,38.47
2018-11-13T02:58:57.622Z,37.57
2018-11-13T03:01:25.732Z,36.63
2018-11-13T03:03:53.879Z,36.50
2018-11-13T03:06:21.982Z,35.50
2018-11-13T03:08:50.107Z,33.33
2018-11-13T03:11:18.199Z,38.23
2018-11-13T03:13:46.414Z,38.97
2018-11-13T03:16:14.578Z,36.67
2018-11-13T03:18:42.711Z,38.63
2018-11-13T03:21:10.823Z,40.17
2018-11-13T03:23:38.967Z,39.53
2018-11-13T03:26:07.489Z,38.57
2018-11-13T03:28:35.627Z,37.47
2018-11-13T03:31:03.741Z,40.37
2018-11-13T03:33:31.835Z,43.60
2018-11-13T03:35:59.956Z,37.40
2018-11-13T03:38:28.109Z,41.97
2018-11-13T03:40:56.243Z,43.20
2018-11-13T03:43:24.339Z,41.50
2018-11-13T03:45:52.543Z,42.80
2018-11-13T03:48:20.653Z,44.97
2018-11-13T03:50:48.801Z,39.03
2018-11-13T03:53:16.890Z,42.07
2018-11-13T03:55:44.990Z,39.23
2018-11-13T03:58:13.207Z,41.67
2018-11-13T04:00:41.320Z,41.80
2018-11-13T04:03:09.448Z,41.03
2018-11-13T04:05:37.556Z,40.43
2018-11-13T04:08:05.793Z,40.20
2018-11-13T04:10:34.016Z,41.10
2018-11-13T04:13:02.105Z,38.17
2018-11-13T04:15:30.255Z,39.60
2018-11-13T04:17:58.416Z,41.33
2018-11-13T04:20:26.611Z,40.27
2018-11-13T04:22:54.718Z,41.37
2018-11-13T04:25:22.949Z,44.30
2018-11-13T04:27:51.060Z,42.30
2018-11-13T04:30:19.460Z,47.87
2018-11-13T04:32:47.639Z,41.43
2018-11-13T04:35:16.918Z,38.33
2018-11-13T04:37:45.023Z,40.33
2018-11-13T04:40:16.246Z,38.87
2018-11-13T04:42:52.149Z,41.30
2018-11-13T04:45:21.717Z,36.47
2018-11-13T04:47:50.408Z,41.63
2018-11-13T04:50:19.599Z,41.67
2018-11-13T04:52:47.875Z,40.97
2018-11-13T04:55:16.379Z,40.50
2018-11-13T04:57:45.446Z,36.50
2018-11-13T05:00:14.686Z,38.37
2018-11-13T05:02:43.712Z,39.23
2018-11-13T05:05:12.835Z,35.03
2018-11-13T05:07:41.431Z,37.77
2018-11-13T05:10:11.146Z,36.10
2018-11-13T05:12:39.944Z,36.07
2018-11-13T05:15:08.417Z,35.50
2018-11-13T05:17:36.542Z,36.17
2018-11-13T05:20:05.007Z,36.27
2018-11-13T05:22:33.123Z,36.47
2018-11-13T05:25:01.213Z,32.63
2018-11-13T05:27:29.367Z,29.97
2018-11-13T05:29:57.555Z,33.10
2018-11-13T05:32:25.650Z,30.93
2018-11-13T05:34:53.762Z,36.30
2018-11-13T05:37:21.863Z,32.10
2018-11-13T05:39:49.970Z,30.97
2018-11-13T05:42:18.109Z,32.23
2018-11-13T05:44:46.223Z,28.80
2018-11-13T05:47:14.476Z,32.37
2018-11-13T05:49:42.568Z,34.63
2018-11-13T05:52:10.660Z,29.73
2018-11-13T05:54:38.767Z,30.30
2018-11-13T05:57:06.922Z,28.00
2018-11-13T05:59:35.093Z,33.53
2018-11-13T06:02:03.254Z,29.87
2018-11-13T06:04:31.483Z,29.27
2018-11-13T06:06:59.684Z,31.40
2018-11-13T06:09:27.798Z,28.20
2018-11-13T06:11:55.929Z,28.17
2018-11-13T06:14:24.108Z,30.07
2018-11-13T06:16:52.279Z,36.00
2018-11-13T06:19:20.378Z,28.83
2018-11-13T06:21:48.565Z,33.43
2018-11-13T06:24:16.720Z,24.03
2018-11-13T06:26:44.911Z,29.03
2018-11-13T06:29:13.159Z,31.43
2018-11-13T06:31:41.316Z,30.37
2018-11-13T06:34:09.425Z,27.97
2018-11-13T06:36:37.566Z,32.93
2018-11-13T06:39:07.625Z,27.17
2018-11-13T06:41:35.874Z,27.30
2018-11-13T06:44:04.089Z,26.07
2018-11-13T06:46:32.202Z,28.37
2018-11-13T06:49:00.369Z,29.20
2018-11-13T06:51:28.471Z,30.50
2018-11-13T06:54:02.284Z,28.97
2018-11-13T06:56:30.395Z,28.53
2018-11-13T06:58:58.503Z,28.87
2018-11-13T07:01:26.620Z,29.03
2018-11-13T07:03:54.767Z,32.43
2018-11-13T07:06:22.884Z,29.37
2018-11-13T07:08:50.998Z,33.17
2018-11-13T07:11:19.158Z,27.30
2018-11-13T07:13:47.268Z,25.83
2018-11-13T07:16:15.361Z,27.50
2018-11-13T07:18:43.495Z,24.43
2018-11-13T07:21:11.580Z,21.17
2018-11-13T07:23:39.766Z,25.10
2018-11-13T07:26:08.023Z,28.30
2018-11-13T07:28:36.141Z,24.57
2018-11-13T07:31:04.380Z,22.20
2018-11-13T07:33:32.493Z,20.60
2018-11-13T07:36:00.561Z,17.77
2018-11-13T07:38:28.686Z,18.07
2018-11-13T07:40:56.915Z,16.80
2018-11-13T07:43:25.047Z,15.50
2018-11-13T07:45:53.223Z,13.93
2018-11-13T07:48:21.366Z,12.90
2018-11-13T07:50:49.450Z,10.33
2018-11-13T07:53:18.059Z,12.40
2018-11-13T07:55:46.150Z,9.37
2018-11-13T07:58:14.283Z,7.47
2018-11-13T08:00:42.376Z,9.90
2018-11-13T08:03:41.660Z,6.60
2018-11-13T08:06:09.777Z,6.73
2018-11-13T08:08:37.899Z,6.93
2018-11-13T08:11:06.177Z,5.53
2018-11-13T08:13:34.850Z,8.60
2018-11-13T08:16:02.864Z,5.00
2018-11-13T08:18:31.802Z,3.93
2018-11-13T08:20:59.829Z,4.53
2018-11-13T08:23:27.899Z,7.67
2018-11-13T08:25:56.041Z,4.17
2018-11-13T08:28:24.155Z,4.80
2018-11-13T08:30:52.203Z,8.00
2018-11-13T08:33:20.378Z,4.00
2018-11-13T08:35:48.535Z,3.67
2018-11-13T08:38:16.626Z,5.40
2018-11-13T08:40:44.780Z,4.23
2018-11-13T08:43:12.860Z,7.07
2018-11-13T08:45:41.064Z,5.63
2018-11-13T08:48:09.154Z,6.40
2018-11-13T08:50:37.359Z,4.40
2018-11-13T08:53:05.675Z,5.23
2018-11-13T08:55:33.815Z,6.33
2018-11-13T08:58:01.911Z,8.33
2018-11-13T09:00:30.000Z,6.07
2018-11-13T09:02:58.083Z,6.43
2018-11-13T09:05:26.163Z,4.43
2018-11-13T09:07:54.247Z,11.10
2018-11-13T09:10:22.353Z,4.83
2018-11-13T09:12:50.447Z,9.10
2018-11-13T09:15:19.923Z,8.50
2018-11-13T09:17:48.022Z,6.10
2018-11-13T09:20:17.497Z,4.47
2018-11-13T09:22:45.669Z,4.80
2018-11-13T09:25:14.971Z,6.80
2018-11-13T09:27:43.083Z,4.60
2018-11-13T09:30:13.030Z,6.87
2018-11-13T09:32:41.557Z,4.93
2018-11-13T09:35:10.803Z,5.90
2018-11-13T09:37:38.986Z,6.10
2018-11-13T09:40:09.146Z,5.03
2018-11-13T09:42:37.513Z,4.67
2018-11-13T09:45:05.608Z,6.60
2018-11-13T09:47:33.824Z,4.13
2018-11-13T09:50:01.936Z,5.20
2018-11-13T09:52:30.016Z,6.00
2018-11-13T09:54:58.383Z,4.00
2018-11-13T09:57:26.483Z,4.33
2018-11-13T09:59:54.646Z,4.40
2018-11-13T10:02:23.404Z,5.40
2018-11-13T10:04:51.562Z,4.87
2018-11-13T10:07:18.898Z,6.23
2018-11-13T10:09:47.030Z,4.73
2018-11-13T10:12:15.134Z,5.20
2018-11-13T10:14:43.387Z,7.03
2018-11-13T10:17:11.588Z,9.07
2018-11-13T10:19:39.580Z,8.67
2018-11-13T10:22:07.690Z,7.13
2018-11-13T10:24:35.775Z,6.70
2018-11-13T10:27:03.989Z,11.47
2018-11-13T10:29:32.040Z,8.80
2018-11-13T10:32:00.192Z,8.83
2018-11-13T10:34:28.366Z,7.10
2018-11-13T10:36:56.458Z,5.40
2018-11-13T10:39:24.615Z,7.00
2018-11-13T10:41:52.695Z,6.83
2018-11-13T10:44:20.864Z,6.77
2018-11-13T10:46:49.978Z,9.47
2018-11-13T10:49:18.114Z,13.80
2018-11-13T10:51:46.303Z,6.33
2018-11-13T10:54:14.459Z,8.17
2018-11-13T10:56:42.652Z,12.30
2018-11-13T10:59:10.748Z,11.20
2018-11-13T11:01:44.165Z,7.77
2018-11-13T11:04:17.715Z,9.00
2018-11-13T11:06:45.911Z,7.77
2018-11-13T11:09:14.060Z,11.23
2018-11-13T11:11:42.292Z,8.53
2018-11-13T11:14:10.453Z,8.80
2018-11-13T11:16:38.570Z,6.70
2018-11-13T11:19:06.715Z,12.03
2018-11-13T11:21:34.810Z,9.43
2018-11-13T11:24:03.058Z,8.17
2018-11-13T11:26:31.123Z,8.90
2018-11-13T11:28:59.270Z,8.60
2018-11-13T11:31:27.341Z,10.07
2018-11-13T11:33:55.484Z,10.10
2018-11-13T11:36:23.571Z,10.60
2018-11-13T11:38:51.881Z,9.10
2018-11-13T11:41:19.918Z,10.77
2018-11-13T11:43:48.012Z,10.60
2018-11-13T11:46:16.149Z,14.50
2018-11-13T11:48:44.225Z,15.77
2018-11-13T11:51:12.311Z,10.00
2018-11-13T11:53:40.393Z,9.20
2018-11-13T11:56:08.480Z,9.00
2018-11-13T11:58:36.697Z,16.13
2018-11-13T12:01:04.914Z,15.33
2018-11-13T12:03:33.016Z,13.60
2018-11-13T12:06:01.137Z,11.77
2018-11-13T12:08:29.230Z,13.43
2018-11-13T12:10:57.526Z,12.97
2018-11-13T12:13:25.677Z,9.27
2018-11-13T12:15:53.834Z,13.50
2018-11-13T12:18:21.954Z,16.47
2018-11-13T12:20:50.099Z,12.30
2018-11-13T12:23:18.254Z,9.43
2018-11-13T12:25:46.486Z,10.50
2018-11-13T12:28:14.607Z,14.13
2018-11-13T12:30:42.772Z,17.10
2018-11-13T12:33:10.855Z,12.20
2018-11-13T12:35:39.031Z,11.17
2018-11-13T12:38:07.116Z,16.77
2018-11-13T12:40:35.225Z,11.67
2018-11-13T12:43:03.363Z,17.30
2018-11-13T12:45:31.642Z,13.20
2018-11-13T12:47:59.803Z,17.70
2018-11-13T12:50:33.304Z,13.30
2018-11-13T12:53:01.410Z,10.23
2018-11-13T12:55:29.536Z,16.13
2018-11-13T12:57:58.146Z,15.70
2018-11-13T13:00:26.652Z,11.30
2018-11-13T13:02:54.806Z,13.93
2018-11-13T13:05:22.909Z,16.97
2018-11-13T13:07:50.988Z,20.17
2018-11-13T13:10:20.153Z,9.03
2018-11-13T13:12:48.236Z,12.93
2018-11-13T13:15:17.325Z,14.80
2018-11-13T13:17:46.011Z,19.20
2018-11-13T13:20:15.817Z,13.50
2018-11-13T13:22:44.841Z,12.47
2018-11-13T13:25:14.124Z,14.23
2018-11-13T13:27:42.334Z,12.10
2018-11-13T13:30:11.926Z,13.63
2018-11-13T13:32:40.005Z,12.90
2018-11-13T13:35:13.779Z,16.83
2018-11-13T13:37:41.866Z,13.07
2018-11-13T13:40:10.039Z,13.43
2018-11-13T13:42:38.153Z,18.67
2018-11-13T13:45:06.266Z,15.90
2018-11-13T13:47:34.352Z,13.10
2018-11-13T13:50:02.546Z,17.23
2018-11-13T13:52:30.719Z,11.50
2018-11-13T13:54:58.801Z,13.20
2018-11-13T13:57:26.931Z,20.23
2018-11-13T13:59:55.341Z,13.73
2018-11-13T14:02:23.163Z,15.50
2018-11-13T14:04:51.264Z,11.27
2018-11-13T14:07:19.371Z,17.30
2018-11-13T14:09:47.490Z,16.13
2018-11-13T14:12:15.581Z,12.10
2018-11-13T14:14:44.532Z,12.90
2018-11-13T14:17:12.728Z,16.93
2018-11-13T14:19:40.827Z,13.67
2018-11-13T14:22:08.971Z,20.50
2018-11-13T14:24:37.088Z,12.73
2018-11-13T14:27:05.240Z,19.33
2018-11-13T14:29:33.410Z,13.43
2018-11-13T14:32:01.582Z,14.80
2018-11-13T14:34:29.677Z,14.80
2018-11-13T14:36:57.843Z,14.30
2018-11-13T14:39:25.947Z,18.43
2018-11-13T14:41:54.873Z,16.00
2018-11-13T14:44:23.087Z,12.47
2018-11-13T14:46:51.255Z,22.07
2018-11-13T14:49:19.362Z,17.67
2018-11-13T14:51:47.532Z,15.23
2018-11-13T14:54:15.704Z,15.73
2018-11-13T14:56:44.163Z,20.87
2018-11-13T14:59:12.350Z,17.73
2018-11-13T15:01:40.524Z,16.83
2018-11-13T15:04:09.309Z,16.17
2018-11-13T15:06:37.447Z,16.93
2018-11-13T15:09:06.472Z,16.07
2018-11-13T15:11:34.712Z,18.10
2018-11-13T15:14:03.028Z,14.23
2018-11-13T15:16:31.165Z,14.90
2018-11-13T15:18:59.373Z,14.73
2018-11-13T15:21:27.487Z,21.27
2018-11-13T15:23:55.591Z,17.97
2018-11-13T15:26:26.124Z,18.03
2018-11-13T15:28:54.288Z,22.27
2018-11-13T15:31:24.065Z,15.43
2018-11-13T15:33:52.164Z,19.90
2018-11-13T15:36:20.272Z,16.83
2018-11-13T15:38:48.391Z,14.97
2018-11-13T15:41:16.499Z,18.07
2018-11-13T15:43:44.600Z,14.23
2018-11-13T15:46:12.746Z,21.57
2018-11-13T15:48:40.911Z,20.73
2018-11-13T15:51:09.245Z,11.37
2018-11-13T15:53:37.259Z,20.67
2018-11-13T15:56:05.454Z,15.97
2018-11-13T15:58:33.692Z,14.43
2018-11-13T16:01:01.771Z,18.13
2018-11-13T16:03:34.370Z,19.77
2018-11-13T16:06:02.517Z,18.87
2018-11-13T16:08:30.597Z,16.20
2018-11-13T16:10:58.687Z,19.73
2018-11-13T16:13:26.770Z,18.70
2018-11-13T16:15:54.902Z,10.67
2018-11-13T16:18:24.581Z,18.70
2018-11-13T16:20:52.674Z,15.17
2018-11-13T16:23:20.800Z,12.00
2018-11-13T16:25:48.937Z,23.40
2018-11-13T16:28:17.053Z,12.57
2018-11-13T16:30:45.422Z,18.63
2018-11-13T16:33:13.362Z,25.87
2018-11-13T16:35:41.452Z,18.60
2018-11-13T16:38:10.828Z,18.53
2018-11-13T16:40:40.910Z,15.60
2018-11-13T16:43:07.086Z,19.60
2018-11-13T16:45:35.487Z,14.83
2018-11-13T16:48:04.442Z,21.87
2018-11-13T16:50:37.851Z,18.77
2018-11-13T16:53:06.160Z,11.53
2018-11-13T16:55:39.738Z,16.33
2018-11-13T16:58:09.643Z,18.80
2018-11-13T17:00:37.923Z,14.53
2018-11-13T17:03:05.987Z,20.57
2018-11-13T17:05:34.182Z,17.80
2018-11-13T17:08:02.209Z,24.27
2018-11-13T17:10:31.327Z,20.23
2018-11-13T17:13:00.207Z,24.40
2018-11-13T17:15:29.544Z,18.27
2018-11-13T17:17:58.912Z,22.10
2018-11-13T17:20:27.062Z,22.10
2018-11-13T17:22:55.097Z,23.37
2018-11-13T17:25:24.774Z,28.87
2018-11-13T17:27:53.777Z,19.33
2018-11-13T17:30:26.366Z,21.27
2018-11-13T17:32:54.977Z,17.00
2018-11-13T17:35:24.270Z,21.27
2018-11-13T17:37:53.314Z,24.23
2018-11-13T17:40:23.584Z,20.47
2018-11-13T17:42:52.942Z,17.90
2018-11-13T17:45:28.951Z,24.67
2018-11-13T17:47:57.279Z,20.30
2018-11-13T17:50:26.711Z,14.10
2018-11-13T17:52:54.915Z,15.60
2018-11-13T17:55:23.561Z,19.53
2018-11-13T17:57:53.159Z,20.17
2018-11-13T18:00:31.419Z,18.23
2018-11-13T18:02:59.976Z,24.90
2018-11-13T18:05:28.636Z,18.93
2018-11-13T18:07:57.842Z,20.93
2018-11-13T18:10:26.723Z,18.50
2018-11-13T18:12:54.870Z,17.53
2018-11-13T18:15:24.420Z,25.83
2018-11-13T18:17:52.515Z,16.70
2018-11-13T18:20:25.039Z,21.90
2018-11-13T18:22:54.136Z,22.00
2018-11-13T18:25:22.218Z,23.23
2018-11-13T18:27:51.756Z,16.80
2018-11-13T18:30:21.610Z,20.70
2018-11-13T18:32:50.472Z,25.77
2018-11-13T18:35:21.309Z,17.47
2018-11-13T18:37:50.608Z,20.67
2018-11-13T18:40:19.915Z,19.23
2018-11-13T18:42:48.873Z,18.57
2018-11-13T18:45:19.109Z,24.30
2018-11-13T18:47:47.256Z,16.33
2018-11-13T18:50:17.043Z,21.20
2018-11-13T18:52:45.388Z,19.80
2018-11-13T18:55:14.135Z,15.57
2018-11-13T18:57:42.627Z,19.90
2018-11-13T19:00:15.128Z,17.83
2018-11-13T19:02:43.525Z,20.07
2018-11-13T19:05:13.000Z,19.00
2018-11-13T19:07:41.932Z,20.60
2018-11-13T19:10:11.112Z,16.03
2018-11-13T19:12:39.953Z,20.90
2018-11-13T19:15:09.030Z,18.13
2018-11-13T19:17:37.894Z,14.77
2018-11-13T19:20:07.922Z,17.83
2018-11-13T19:22:35.944Z,19.23
2018-11-13T19:25:04.256Z,18.33
2018-11-13T19:27:32.546Z,22.73
2018-11-13T19:30:00.771Z,23.80
2018-11-13T19:32:28.917Z,20.37
2018-11-13T19:34:57.065Z,17.83
2018-11-13T19:37:25.498Z,22.53
2018-11-13T19:39:53.727Z,16.93
2018-11-13T19:42:21.807Z,20.07
2018-11-13T19:44:50.038Z,19.60
2018-11-13T19:47:18.015Z,23.20
2018-11-13T19:49:46.199Z,18.60
2018-11-13T19:52:14.335Z,19.47
2018-11-13T19:54:42.502Z,15.00
2018-11-13T19:57:10.686Z,17.90
2018-11-13T19:59:38.797Z,22.07
2018-11-13T20:02:06.908Z,16.47
2018-11-13T20:04:35.101Z,21.23
2018-11-13T20:07:03.192Z,23.73
2018-11-13T20:09:31.328Z,19.97
2018-11-13T20:11:59.459Z,21.33
2018-11-13T20:14:27.575Z,19.17
2018-11-13T20:16:55.775Z,24.37
2018-11-13T20:19:24.065Z,19.77
2018-11-13T20:21:52.222Z,19.87
2018-11-13T20:24:20.394Z,20.80
2018-11-13T20:26:48.606Z,19.67
2018-11-13T20:29:17.016Z,22.33
2018-11-13T20:31:45.106Z,30.43
2018-11-13T20:34:13.344Z,22.33
2018-11-13T20:36:41.474Z,15.90
2018-11-13T20:39:10.884Z,16.83
2018-11-13T20:41:39.021Z,21.77
2018-11-13T20:44:07.127Z,22.57
2018-11-13T20:46:35.478Z,18.97
2018-11-13T20:49:03.692Z,20.17
2018-11-13T20:51:31.889Z,25.93
2018-11-13T20:54:00.111Z,24.43
2018-11-13T20:56:28.316Z,18.97
2018-11-13T20:58:56.439Z,28.67
2018-11-13T21:01:24.618Z,19.83
2018-11-13T21:03:52.736Z,21.40
2018-11-13T21:06:20.967Z,18.90
2018-11-13T21:08:49.263Z,26.60
2018-11-13T21:11:17.242Z,18.07
2018-11-13T21:13:45.400Z,25.70
2018-11-13T21:16:13.678Z,28.90
2018-11-13T21:18:41.846Z,24.47
2018-11-13T21:21:10.062Z,23.03
2018-11-13T21:23:38.270Z,23.33
2018-11-13T21:26:06.313Z,23.67
2018-11-13T21:28:34.451Z,20.47
2018-11-13T21:31:02.635Z,23.60
2018-11-13T21:33:30.775Z,19.87
2018-11-13T21:35:58.875Z,25.33
2018-11-13T21:38:26.966Z,21.03
2018-11-13T21:40:55.095Z,20.03
2018-11-13T21:43:23.222Z,28.70
2018-11-13T21:45:51.291Z,24.13
2018-11-13T21:48:19.976Z,23.37
2018-11-13T21:50:48.079Z,19.83
2018-11-13T21:53:16.188Z,24.30
2018-11-13T21:55:44.404Z,27.27
2018-11-13T21:58:12.461Z,23.10
2018-11-13T22:00:40.537Z,24.90
2018-11-13T22:03:09.168Z,26.73
2018-11-13T22:05:37.580Z,24.23
2018-11-13T22:08:05.993Z,23.47
2018-11-13T22:10:34.123Z,22.17
2018-11-13T22:13:02.238Z,24.87
2018-11-13T22:15:30.879Z,26.10
2018-11-13T22:17:59.702Z,23.57
2018-11-13T22:20:27.538Z,25.63
2018-11-13T22:22:56.349Z,21.57
2018-11-13T22:25:25.198Z,27.00
2018-11-13T22:27:54.610Z,31.77
2018-11-13T22:30:24.016Z,25.53
2018-11-13T22:32:52.384Z,30.03
2018-11-13T22:35:21.354Z,29.93
2018-11-13T22:37:49.502Z,27.30
2018-11-13T22:40:19.015Z,28.93
2018-11-13T22:42:47.439Z,32.00
2018-11-13T22:45:17.251Z,22.43
2018-11-13T22:47:45.362Z,29.80
2018-11-13T22:50:16.310Z,29.03
2018-11-13T22:52:44.924Z,28.97
2018-11-13T22:55:13.699Z,27.00
2018-11-13T22:57:42.840Z,30.43
2018-11-13T23:00:18.604Z,39.00
2018-11-13T23:02:47.935Z,29.27
2018-11-13T23:05:16.164Z,31.37
2018-11-13T23:07:44.327Z,30.57
2018-11-13T23:10:13.499Z,30.80
2018-11-13T23:12:42.289Z,38.17
2018-11-13T23:15:12.641Z,27.53
2018-11-13T23:17:41.794Z,34.27
2018-11-13T23:20:11.630Z,33.43
2018-11-13T23:22:39.879Z,31.00
2018-11-13T23:25:09.390Z,32.77
2018-11-13T23:27:37.482Z,32.43
2018-11-13T23:30:07.302Z,31.87
2018-11-13T23:32:35.440Z,32.60
2018-11-13T23:35:03.708Z,26.73
2018-11-13T23:37:31.736Z,29.20
2018-11-13T23:39:59.863Z,30.00
2018-11-13T23:42:27.938Z,31.57
2018-11-13T23:44:56.026Z,30.03
2018-11-13T23:47:24.125Z,29.67
2018-11-13T23:49:52.236Z,28.97
2018-11-13T23:52:20.350Z,27.37
2018-11-13T23:54:48.520Z,30.40
2018-11-13T23:57:16.686Z,27.73
2018-11-13T23:59:44.776Z,26.87
